sensor_id;sensor_type;location;lat;lon;timestamp;pressure;altitude;pressure_sealevel;temperature;humidity
78990;BME280;68390;52.130;21.218;2023-08-20T00:01:57;100840.13;;;18.88;100.00
78990;BME280;68390;52.130;21.218;2023-08-20T00:04:26;100842.91;;;18.88;100.00
78990;BME280;68390;52.130;21.218;2023-08-20T00:06:52;100846.97;;;18.86;100.00
78990;BME280;68390;52.130;21.218;2023-08-20T00:09:19;100834.31;;;18.83;100.00
78990;BME280;68390;52.130;21.218;2023-08-20T00:11:45;100837.97;;;18.77;100.00
78990;BME280;68390;52.130;21.218;2023-08-20T00:14:15;100836.66;;;18.80;100.00
78990;BME280;68390;52.130;21.218;2023-08-20T00:16:41;100835.81;;;18.79;100.00
78990;BME280;68390;52.130;21.218;2023-08-20T00:19:08;100841.16;;;18.74;100.00
78990;BME280;68390;52.130;21.218;2023-08-20T00:21:34;100840.53;;;18.72;100.00
78990;BME280;68390;52.130;21.218;2023-08-20T00:24:00;100831.09;;;18.73;100.00
78990;BME280;68390;52.130;21.218;2023-08-20T00:26:26;100835.16;;;18.70;100.00
78990;BME280;68390;52.130;21.218;2023-08-20T00:28:52;100828.53;;;18.65;100.00
78990;BME280;68390;52.130;21.218;2023-08-20T00:31:17;100833.25;;;18.64;100.00
78990;BME280;68390;52.130;21.218;2023-08-20T00:33:42;100836.88;;;18.65;100.00
78990;BME280;68390;52.130;21.218;2023-08-20T00:36:08;100836.25;;;18.63;100.00
78990;BME280;68390;52.130;21.218;2023-08-20T00:38:34;100818.91;;;18.61;100.00
78990;BME280;68390;52.130;21.218;2023-08-20T00:41:00;100832.81;;;18.61;100.00
78990;BME280;68390;52.130;21.218;2023-08-20T00:43:26;100822.94;;;18.58;100.00
78990;BME280;68390;52.130;21.218;2023-08-20T00:45:52;100829.63;;;18.57;100.00
78990;BME280;68390;52.130;21.218;2023-08-20T00:48:18;100829.78;;;18.56;100.00
78990;BME280;68390;52.130;21.218;2023-08-20T00:50:46;100828.28;;;18.53;100.00
78990;BME280;68390;52.130;21.218;2023-08-20T00:53:13;100827.41;;;18.53;100.00
78990;BME280;68390;52.130;21.218;2023-08-20T00:55:42;100836.84;;;18.52;100.00
78990;BME280;68390;52.130;21.218;2023-08-20T00:58:10;100832.34;;;18.44;100.00
78990;BME280;68390;52.130;21.218;2023-08-20T01:00:36;100825.91;;;18.44;100.00
78990;BME280;68390;52.130;21.218;2023-08-20T01:03:02;100830.41;;;18.45;100.00
78990;BME280;68390;52.130;21.218;2023-08-20T01:05:32;100828.69;;;18.44;100.00
78990;BME280;68390;52.130;21.218;2023-08-20T01:08:12;100836.38;;;18.42;100.00
78990;BME280;68390;52.130;21.218;2023-08-20T01:13:29;100828.91;;;18.36;100.00
78990;BME280;68390;52.130;21.218;2023-08-20T01:15:55;100825.06;;;18.37;100.00
78990;BME280;68390;52.130;21.218;2023-08-20T01:18:21;100824.41;;;18.34;100.00
78990;BME280;68390;52.130;21.218;2023-08-20T01:20:52;100825.47;;;18.33;100.00
78990;BME280;68390;52.130;21.218;2023-08-20T01:23:38;100827.38;;;18.33;100.00
78990;BME280;68390;52.130;21.218;2023-08-20T01:26:17;100826.28;;;18.27;100.00
78990;BME280;68390;52.130;21.218;2023-08-20T01:28:46;100834.88;;;18.26;100.00
78990;BME280;68390;52.130;21.218;2023-08-20T01:31:13;100834.00;;;18.25;100.00
78990;BME280;68390;52.130;21.218;2023-08-20T01:33:40;100833.16;;;18.25;100.00
78990;BME280;68390;52.130;21.218;2023-08-20T01:36:07;100835.28;;;18.23;100.00
78990;BME280;68390;52.130;21.218;2023-08-20T01:38:35;100839.78;;;18.24;100.00
78990;BME280;68390;52.130;21.218;2023-08-20T01:41:01;100848.13;;;18.24;100.00
78990;BME280;68390;52.130;21.218;2023-08-20T01:43:27;100842.75;;;18.22;100.00
78990;BME280;68390;52.130;21.218;2023-08-20T01:45:52;100839.31;;;18.20;100.00
78990;BME280;68390;52.130;21.218;2023-08-20T01:48:18;100833.56;;;18.15;100.00
78990;BME280;68390;52.130;21.218;2023-08-20T01:50:43;100845.94;;;18.19;100.00
78990;BME280;68390;52.130;21.218;2023-08-20T01:53:11;100846.16;;;18.18;100.00
78990;BME280;68390;52.130;21.218;2023-08-20T01:55:38;100841.69;;;18.17;100.00
78990;BME280;68390;52.130;21.218;2023-08-20T01:58:03;100842.97;;;18.14;100.00
78990;BME280;68390;52.130;21.218;2023-08-20T02:00:29;100839.13;;;18.15;100.00
78990;BME280;68390;52.130;21.218;2023-08-20T02:02:56;100841.25;;;18.13;100.00
78990;BME280;68390;52.130;21.218;2023-08-20T02:05:23;100846.81;;;18.13;100.00
78990;BME280;68390;52.130;21.218;2023-08-20T02:07:48;100854.06;;;18.14;100.00
78990;BME280;68390;52.130;21.218;2023-08-20T02:10:14;100852.34;;;18.13;100.00
78990;BME280;68390;52.130;21.218;2023-08-20T02:12:40;100860.03;;;18.11;100.00
78990;BME280;68390;52.130;21.218;2023-08-20T02:15:06;100850.63;;;18.06;100.00
78990;BME280;68390;52.130;21.218;2023-08-20T02:17:32;100850.63;;;18.06;100.00
78990;BME280;68390;52.130;21.218;2023-08-20T02:19:58;100853.19;;;18.07;100.00
78990;BME280;68390;52.130;21.218;2023-08-20T02:22:24;100852.31;;;18.07;100.00
78990;BME280;68390;52.130;21.218;2023-08-20T02:24:49;100857.47;;;18.03;100.00
78990;BME280;68390;52.130;21.218;2023-08-20T02:27:15;100856.38;;;18.04;100.00
78990;BME280;68390;52.130;21.218;2023-08-20T02:29:41;100861.94;;;18.04;100.00
78990;BME280;68390;52.130;21.218;2023-08-20T02:32:07;100853.81;;;18.03;100.00
78990;BME280;68390;52.130;21.218;2023-08-20T02:34:32;100856.78;;;18.01;100.00
78990;BME280;68390;52.130;21.218;2023-08-20T02:36:58;100856.13;;;17.99;100.00
78990;BME280;68390;52.130;21.218;2023-08-20T02:39:24;100847.16;;;17.97;100.00
78990;BME280;68390;52.130;21.218;2023-08-20T02:41:50;100842.44;;;17.91;100.00
78990;BME280;68390;52.130;21.218;2023-08-20T02:44:15;100849.72;;;17.92;100.00
78990;BME280;68390;52.130;21.218;2023-08-20T02:46:41;100836.22;;;17.89;100.00
78990;BME280;68390;52.130;21.218;2023-08-20T02:49:06;100842.84;;;17.88;100.00
78990;BME280;68390;52.130;21.218;2023-08-20T02:51:33;100845.63;;;17.88;100.00
78990;BME280;68390;52.130;21.218;2023-08-20T02:53:59;100839.66;;;17.84;100.00
78990;BME280;68390;52.130;21.218;2023-08-20T02:56:24;100843.28;;;17.85;100.00
78990;BME280;68390;52.130;21.218;2023-08-20T02:58:50;100850.75;;;17.84;100.00
78990;BME280;68390;52.130;21.218;2023-08-20T03:01:22;100847.31;;;17.82;100.00
78990;BME280;68390;52.130;21.218;2023-08-20T03:03:48;100838.53;;;17.79;100.00
78990;BME280;68390;52.130;21.218;2023-08-20T03:06:13;100840.66;;;17.77;100.00
78990;BME280;68390;52.130;21.218;2023-08-20T03:08:39;100835.34;;;17.75;100.00
78990;BME280;68390;52.130;21.218;2023-08-20T03:11:04;100834.25;;;17.76;100.00
78990;BME280;68390;52.130;21.218;2023-08-20T03:13:30;100834.03;;;17.78;100.00
78990;BME280;68390;52.130;21.218;2023-08-20T03:15:56;100835.97;;;17.77;100.00
78990;BME280;68390;52.130;21.218;2023-08-20T03:18:21;100843.44;;;17.77;100.00
78990;BME280;68390;52.130;21.218;2023-08-20T03:20:47;100834.47;;;17.75;100.00
78990;BME280;68390;52.130;21.218;2023-08-20T03:23:13;100836.38;;;17.74;100.00
78990;BME280;68390;52.130;21.218;2023-08-20T03:25:38;100846.66;;;17.74;100.00
78990;BME280;68390;52.130;21.218;2023-08-20T03:28:05;100837.00;;;17.70;100.00
78990;BME280;68390;52.130;21.218;2023-08-20T03:30:30;100838.91;;;17.63;100.00
78990;BME280;68390;52.130;21.218;2023-08-20T03:32:57;100842.09;;;17.66;100.00
78990;BME280;68390;52.130;21.218;2023-08-20T03:35:22;100838.47;;;17.66;100.00
78990;BME280;68390;52.130;21.218;2023-08-20T03:37:48;100834.19;;;17.63;100.00
78990;BME280;68390;52.130;21.218;2023-08-20T03:40:14;100855.13;;;17.66;100.00
78990;BME280;68390;52.130;21.218;2023-08-20T03:42:40;100848.94;;;17.64;100.00
78990;BME280;68390;52.130;21.218;2023-08-20T03:45:06;100849.09;;;17.62;100.00
78990;BME280;68390;52.130;21.218;2023-08-20T03:47:32;100848.94;;;17.64;100.00
78990;BME280;68390;52.130;21.218;2023-08-20T03:49:58;100849.09;;;17.62;100.00
78990;BME280;68390;52.130;21.218;2023-08-20T03:52:24;100848.09;;;17.63;100.00
78990;BME280;68390;52.130;21.218;2023-08-20T03:54:50;100846.94;;;17.57;100.00
78990;BME280;68390;52.130;21.218;2023-08-20T03:57:16;100852.28;;;17.59;100.00
78990;BME280;68390;52.130;21.218;2023-08-20T03:59:41;100850.56;;;17.58;100.00
78990;BME280;68390;52.130;21.218;2023-08-20T04:02:07;100852.50;;;17.57;100.00
78990;BME280;68390;52.130;21.218;2023-08-20T04:04:33;100856.13;;;17.58;100.00
78990;BME280;68390;52.130;21.218;2023-08-20T04:06:59;100852.94;;;17.61;100.00
78990;BME280;68390;52.130;21.218;2023-08-20T04:09:24;100846.16;;;17.64;100.00
78990;BME280;68390;52.130;21.218;2023-08-20T04:11:53;100854.72;;;17.69;100.00
78990;BME280;68390;52.130;21.218;2023-08-20T04:14:19;100847.03;;;17.71;100.00
78990;BME280;68390;52.130;21.218;2023-08-20T04:16:45;100853.06;;;17.74;100.00
78990;BME280;68390;52.130;21.218;2023-08-20T04:19:11;100850.69;;;17.78;100.00
78990;BME280;68390;52.130;21.218;2023-08-20T04:21:36;100853.28;;;17.79;100.00
78990;BME280;68390;52.130;21.218;2023-08-20T04:24:05;100853.53;;;17.84;100.00
78990;BME280;68390;52.130;21.218;2023-08-20T04:26:30;100855.47;;;17.90;100.00
78990;BME280;68390;52.130;21.218;2023-08-20T04:28:56;100857.00;;;17.93;100.00
78990;BME280;68390;52.130;21.218;2023-08-20T04:31:21;100856.59;;;17.96;100.00
78990;BME280;68390;52.130;21.218;2023-08-20T04:33:47;100855.75;;;18.02;100.00
78990;BME280;68390;52.130;21.218;2023-08-20T04:36:13;100857.88;;;18.07;100.00
78990;BME280;68390;52.130;21.218;2023-08-20T04:38:39;100854.47;;;18.11;100.00
78990;BME280;68390;52.130;21.218;2023-08-20T04:41:04;100864.13;;;18.15;100.00
78990;BME280;68390;52.130;21.218;2023-08-20T04:43:30;100863.50;;;18.20;100.00
78990;BME280;68390;52.130;21.218;2023-08-20T04:45:55;100857.31;;;18.24;100.00
78990;BME280;68390;52.130;21.218;2023-08-20T04:48:21;100866.53;;;18.31;100.00
78990;BME280;68390;52.130;21.218;2023-08-20T04:50:47;100865.47;;;18.39;100.00
78990;BME280;68390;52.130;21.218;2023-08-20T04:53:12;100870.41;;;18.44;100.00
78990;BME280;68390;52.130;21.218;2023-08-20T04:55:38;100875.97;;;18.50;100.00
78990;BME280;68390;52.130;21.218;2023-08-20T04:58:04;100870.44;;;18.57;100.00
78990;BME280;68390;52.130;21.218;2023-08-20T05:00:30;100868.34;;;18.72;100.00
78990;BME280;68390;52.130;21.218;2023-08-20T05:02:56;100872.00;;;18.86;100.00
78990;BME280;68390;52.130;21.218;2023-08-20T05:05:22;100879.50;;;18.92;100.00
78990;BME280;68390;52.130;21.218;2023-08-20T05:07:47;100872.88;;;18.99;100.00
78990;BME280;68390;52.130;21.218;2023-08-20T05:10:16;100884.66;;;19.08;100.00
78990;BME280;68390;52.130;21.218;2023-08-20T05:12:42;100869.66;;;19.16;100.00
78990;BME280;68390;52.130;21.218;2023-08-20T05:15:07;100858.09;;;19.19;100.00
78990;BME280;68390;52.130;21.218;2023-08-20T05:17:33;100879.47;;;19.31;100.00
78990;BME280;68390;52.130;21.218;2023-08-20T05:19:59;100882.06;;;19.39;100.00
78990;BME280;68390;52.130;21.218;2023-08-20T05:22:26;100884.63;;;19.48;100.00
78990;BME280;68390;52.130;21.218;2023-08-20T05:24:52;100883.34;;;19.57;100.00
78990;BME280;68390;52.130;21.218;2023-08-20T05:27:18;100888.84;;;19.76;100.00
78990;BME280;68390;52.130;21.218;2023-08-20T05:29:44;100890.09;;;19.94;100.00
78990;BME280;68390;52.130;21.218;2023-08-20T05:32:10;100884.28;;;20.02;100.00
78990;BME280;68390;52.130;21.218;2023-08-20T05:34:35;100890.03;;;20.13;100.00
78990;BME280;68390;52.130;21.218;2023-08-20T05:37:01;100892.78;;;20.20;100.00
78990;BME280;68390;52.130;21.218;2023-08-20T05:39:27;100893.59;;;20.27;100.00
78990;BME280;68390;52.130;21.218;2023-08-20T05:41:55;100896.78;;;20.37;100.00
78990;BME280;68390;52.130;21.218;2023-08-20T05:44:21;100907.91;;;20.50;100.00
78990;BME280;68390;52.130;21.218;2023-08-20T05:46:47;100902.25;;;20.57;100.00
78990;BME280;68390;52.130;21.218;2023-08-20T05:49:14;100904.56;;;20.67;100.00
78990;BME280;68390;52.130;21.218;2023-08-20T05:51:42;100901.53;;;20.75;100.00
78990;BME280;68390;52.130;21.218;2023-08-20T05:54:08;100901.88;;;20.85;100.00
78990;BME280;68390;52.130;21.218;2023-08-20T05:56:33;100903.09;;;20.96;100.00
78990;BME280;68390;52.130;21.218;2023-08-20T05:58:59;100910.13;;;21.05;100.00
78990;BME280;68390;52.130;21.218;2023-08-20T06:01:25;100890.69;;;21.16;100.00
78990;BME280;68390;52.130;21.218;2023-08-20T06:03:50;100891.06;;;21.27;98.21
78990;BME280;68390;52.130;21.218;2023-08-20T06:06:16;100890.91;;;21.40;98.12
78990;BME280;68390;52.130;21.218;2023-08-20T06:08:42;100893.19;;;21.49;97.14
78990;BME280;68390;52.130;21.218;2023-08-20T06:11:08;100891.56;;;21.60;96.37
78990;BME280;68390;52.130;21.218;2023-08-20T06:13:34;100894.94;;;21.69;96.46
78990;BME280;68390;52.130;21.218;2023-08-20T06:16:00;100896.59;;;21.76;97.37
78990;BME280;68390;52.130;21.218;2023-08-20T06:18:25;100900.09;;;21.90;98.26
78990;BME280;68390;52.130;21.218;2023-08-20T06:20:51;100892.06;;;22.00;94.31
78990;BME280;68390;52.130;21.218;2023-08-20T06:23:16;100897.69;;;22.12;93.62
78990;BME280;68390;52.130;21.218;2023-08-20T06:25:42;100905.06;;;22.24;91.66
78990;BME280;68390;52.130;21.218;2023-08-20T06:28:08;100890.75;;;22.32;93.54
78990;BME280;68390;52.130;21.218;2023-08-20T06:30:35;100891.53;;;22.40;93.43
78990;BME280;68390;52.130;21.218;2023-08-20T06:33:01;100892.69;;;22.50;93.61
78990;BME280;68390;52.130;21.218;2023-08-20T06:35:27;100891.88;;;22.61;91.50
78990;BME280;68390;52.130;21.218;2023-08-20T06:37:52;100894.97;;;22.72;92.58
78990;BME280;68390;52.130;21.218;2023-08-20T06:40:18;100891.84;;;22.80;91.00
78990;BME280;68390;52.130;21.218;2023-08-20T06:42:44;100897.25;;;22.93;91.10
78990;BME280;68390;52.130;21.218;2023-08-20T06:45:09;100898.59;;;23.02;91.31
78990;BME280;68390;52.130;21.218;2023-08-20T06:47:35;100896.16;;;23.05;91.58
78990;BME280;68390;52.130;21.218;2023-08-20T06:50:00;100904.75;;;23.22;87.85
78990;BME280;68390;52.130;21.218;2023-08-20T06:52:26;100912.41;;;23.38;87.45
78990;BME280;68390;52.130;21.218;2023-08-20T06:54:52;100915.97;;;23.46;88.29
78990;BME280;68390;52.130;21.218;2023-08-20T06:57:18;100910.03;;;23.54;87.41
78990;BME280;68390;52.130;21.218;2023-08-20T06:59:43;100907.59;;;23.69;86.07
78990;BME280;68390;52.130;21.218;2023-08-20T07:02:10;100915.13;;;23.80;87.74
78990;BME280;68390;52.130;21.218;2023-08-20T07:04:36;100915.88;;;23.87;86.51
78990;BME280;68390;52.130;21.218;2023-08-20T07:07:01;100922.59;;;23.98;84.72
78990;BME280;68390;52.130;21.218;2023-08-20T07:09:30;100913.78;;;24.06;86.08
78990;BME280;68390;52.130;21.218;2023-08-20T07:11:56;100916.28;;;24.19;82.48
78990;BME280;68390;52.130;21.218;2023-08-20T07:14:22;100924.16;;;24.29;82.99
78990;BME280;68390;52.130;21.218;2023-08-20T07:16:47;100917.88;;;24.38;82.06
78990;BME280;68390;52.130;21.218;2023-08-20T07:19:13;100922.88;;;24.48;83.44
78990;BME280;68390;52.130;21.218;2023-08-20T07:21:39;100919.75;;;24.61;82.36
78990;BME280;68390;52.130;21.218;2023-08-20T07:24:04;100919.94;;;24.71;81.12
78990;BME280;68390;52.130;21.218;2023-08-20T07:26:30;100916.84;;;24.84;80.50
78990;BME280;68390;52.130;21.218;2023-08-20T07:28:57;100917.06;;;24.95;79.03
78990;BME280;68390;52.130;21.218;2023-08-20T07:31:26;100919.44;;;25.03;79.52
78990;BME280;68390;52.130;21.218;2023-08-20T07:33:53;100913.44;;;25.11;78.94
78990;BME280;68390;52.130;21.218;2023-08-20T07:36:21;100919.25;;;25.21;76.38
78990;BME280;68390;52.130;21.218;2023-08-20T07:38:47;100920.34;;;25.37;77.48
78990;BME280;68390;52.130;21.218;2023-08-20T07:41:13;100916.25;;;25.44;77.44
78990;BME280;68390;52.130;21.218;2023-08-20T07:43:40;100920.34;;;25.53;75.94
78990;BME280;68390;52.130;21.218;2023-08-20T07:46:07;100923.22;;;25.58;73.68
78990;BME280;68390;52.130;21.218;2023-08-20T07:48:33;100920.00;;;25.67;71.34
78990;BME280;68390;52.130;21.218;2023-08-20T07:51:01;100918.75;;;25.74;71.22
78990;BME280;68390;52.130;21.218;2023-08-20T07:53:29;100915.56;;;25.87;68.64
78990;BME280;68390;52.130;21.218;2023-08-20T07:55:55;100922.13;;;25.93;69.97
78990;BME280;68390;52.130;21.218;2023-08-20T07:58:21;100922.78;;;26.00;68.72
78990;BME280;68390;52.130;21.218;2023-08-20T08:00:47;100922.31;;;26.08;69.66
78990;BME280;68390;52.130;21.218;2023-08-20T08:03:13;100928.69;;;26.20;73.68
78990;BME280;68390;52.130;21.218;2023-08-20T08:05:50;100924.34;;;26.29;70.51
78990;BME280;68390;52.130;21.218;2023-08-20T08:08:16;100920.88;;;26.44;72.70
78990;BME280;68390;52.130;21.218;2023-08-20T08:10:42;100920.78;;;26.61;67.32
78990;BME280;68390;52.130;21.218;2023-08-20T08:13:14;100911.84;;;26.69;68.92
78990;BME280;68390;52.130;21.218;2023-08-20T08:15:40;100911.66;;;26.76;69.19
78990;BME280;68390;52.130;21.218;2023-08-20T08:18:07;100916.22;;;26.82;64.91
78990;BME280;68390;52.130;21.218;2023-08-20T08:20:33;100910.97;;;26.90;66.61
78990;BME280;68390;52.130;21.218;2023-08-20T08:23:00;100914.22;;;26.99;68.25
78990;BME280;68390;52.130;21.218;2023-08-20T08:25:26;100914.84;;;27.06;69.55
78990;BME280;68390;52.130;21.218;2023-08-20T08:27:52;100913.16;;;27.10;68.26
78990;BME280;68390;52.130;21.218;2023-08-20T08:30:18;100917.22;;;27.19;65.89
78990;BME280;68390;52.130;21.218;2023-08-20T08:32:43;100918.69;;;27.27;66.71
78990;BME280;68390;52.130;21.218;2023-08-20T08:35:09;100918.78;;;27.37;66.45
78990;BME280;68390;52.130;21.218;2023-08-20T08:37:34;100908.13;;;27.44;65.53
78990;BME280;68390;52.130;21.218;2023-08-20T08:40:01;100916.44;;;27.56;66.41
78990;BME280;68390;52.130;21.218;2023-08-20T08:42:26;100915.94;;;27.64;65.71
78990;BME280;68390;52.130;21.218;2023-08-20T08:44:52;100918.53;;;27.70;67.27
78990;BME280;68390;52.130;21.218;2023-08-20T08:47:18;100918.25;;;27.72;61.13
78990;BME280;68390;52.130;21.218;2023-08-20T08:49:46;100923.97;;;27.82;65.69
78990;BME280;68390;52.130;21.218;2023-08-20T08:52:13;100917.56;;;27.92;64.50
78990;BME280;68390;52.130;21.218;2023-08-20T08:54:40;100915.06;;;28.05;61.83
78990;BME280;68390;52.130;21.218;2023-08-20T08:57:06;100921.69;;;28.21;62.25
78990;BME280;68390;52.130;21.218;2023-08-20T08:59:32;100914.94;;;28.27;56.78
78990;BME280;68390;52.130;21.218;2023-08-20T09:01:58;100920.06;;;28.35;57.41
78990;BME280;68390;52.130;21.218;2023-08-20T09:04:24;100924.63;;;28.46;58.15
78990;BME280;68390;52.130;21.218;2023-08-20T09:06:51;100925.25;;;28.54;55.69
78990;BME280;68390;52.130;21.218;2023-08-20T09:09:19;100943.91;;;28.60;56.47
78990;BME280;68390;52.130;21.218;2023-08-20T09:11:46;100926.66;;;28.66;56.78
78990;BME280;68390;52.130;21.218;2023-08-20T09:14:30;100932.63;;;28.70;55.16
78990;BME280;68390;52.130;21.218;2023-08-20T09:16:57;100930.97;;;28.74;55.54
78990;BME280;68390;52.130;21.218;2023-08-20T09:19:23;100930.38;;;28.77;55.95
78990;BME280;68390;52.130;21.218;2023-08-20T09:21:52;100923.03;;;28.76;53.52
78990;BME280;68390;52.130;21.218;2023-08-20T09:24:46;100925.34;;;28.79;56.44
78990;BME280;68390;52.130;21.218;2023-08-20T09:27:12;100926.47;;;28.78;55.96
78990;BME280;68390;52.130;21.218;2023-08-20T09:29:47;100936.69;;;28.89;55.18
78990;BME280;68390;52.130;21.218;2023-08-20T09:32:23;100923.13;;;28.96;55.28
78990;BME280;68390;52.130;21.218;2023-08-20T09:34:54;100925.38;;;28.99;55.38
78990;BME280;68390;52.130;21.218;2023-08-20T09:37:22;100920.91;;;29.13;56.47
78990;BME280;68390;52.130;21.218;2023-08-20T09:39:51;100917.78;;;29.20;54.41
78990;BME280;68390;52.130;21.218;2023-08-20T09:42:17;100915.81;;;29.26;58.21
78990;BME280;68390;52.130;21.218;2023-08-20T09:44:44;100924.63;;;29.39;56.70
78990;BME280;68390;52.130;21.218;2023-08-20T09:47:15;100919.25;;;29.53;58.41
78990;BME280;68390;52.130;21.218;2023-08-20T09:49:46;100915.84;;;29.61;56.81
78990;BME280;68390;52.130;21.218;2023-08-20T09:52:25;100917.25;;;29.74;55.78
78990;BME280;68390;52.130;21.218;2023-08-20T09:55:08;100911.84;;;29.82;56.12
78990;BME280;68390;52.130;21.218;2023-08-20T09:57:41;100915.81;;;29.71;55.80
78990;BME280;68390;52.130;21.218;2023-08-20T10:00:08;100902.84;;;29.45;56.70
78990;BME280;68390;52.130;21.218;2023-08-20T10:02:38;100911.03;;;29.41;56.47
78990;BME280;68390;52.130;21.218;2023-08-20T10:05:08;100902.56;;;29.56;59.66
78990;BME280;68390;52.130;21.218;2023-08-20T10:07:35;100901.13;;;29.69;57.31
78990;BME280;68390;52.130;21.218;2023-08-20T10:10:06;100901.13;;;29.79;57.96
78990;BME280;68390;52.130;21.218;2023-08-20T10:12:33;100902.75;;;29.90;53.13
78990;BME280;68390;52.130;21.218;2023-08-20T10:15:00;100896.28;;;30.00;52.98
78990;BME280;68390;52.130;21.218;2023-08-20T10:17:33;100890.31;;;30.07;54.86
78990;BME280;68390;52.130;21.218;2023-08-20T10:19:59;100886.06;;;30.04;51.28
78990;BME280;68390;52.130;21.218;2023-08-20T10:22:43;100885.78;;;30.11;52.28
78990;BME280;68390;52.130;21.218;2023-08-20T10:25:24;100884.03;;;30.20;54.38
78990;BME280;68390;52.130;21.218;2023-08-20T10:27:51;100884.56;;;30.22;49.54
78990;BME280;68390;52.130;21.218;2023-08-20T10:30:19;100879.19;;;30.25;52.78
78990;BME280;68390;52.130;21.218;2023-08-20T10:32:55;100881.53;;;30.08;52.34
78990;BME280;68390;52.130;21.218;2023-08-20T10:35:29;100874.97;;;30.13;52.04
78990;BME280;68390;52.130;21.218;2023-08-20T10:38:17;100867.00;;;30.25;51.93
78990;BME280;68390;52.130;21.218;2023-08-20T10:43:37;100860.44;;;30.35;47.63
78990;BME280;68390;52.130;21.218;2023-08-20T10:46:06;100867.47;;;30.42;48.63
78990;BME280;68390;52.130;21.218;2023-08-20T10:48:33;100869.44;;;30.52;47.65
78990;BME280;68390;52.130;21.218;2023-08-20T10:51:40;100865.16;;;30.59;48.26
78990;BME280;68390;52.130;21.218;2023-08-20T10:54:08;100868.81;;;30.65;48.34
78990;BME280;68390;52.130;21.218;2023-08-20T10:56:47;100867.59;;;30.76;48.04
78990;BME280;68390;52.130;21.218;2023-08-20T10:59:17;100868.16;;;30.78;46.66
78990;BME280;68390;52.130;21.218;2023-08-20T11:01:47;100865.31;;;30.83;47.45
78990;BME280;68390;52.130;21.218;2023-08-20T11:04:17;100861.03;;;30.86;47.86
78990;BME280;68390;52.130;21.218;2023-08-20T11:06:44;100863.84;;;30.91;47.84
78990;BME280;68390;52.130;21.218;2023-08-20T11:09:10;100857.03;;;30.92;47.02
78990;BME280;68390;52.130;21.218;2023-08-20T11:11:39;100858.09;;;30.96;48.23
78990;BME280;68390;52.130;21.218;2023-08-20T11:14:07;100867.75;;;30.95;46.14
78990;BME280;68390;52.130;21.218;2023-08-20T11:16:34;100859.25;;;30.95;45.53
78990;BME280;68390;52.130;21.218;2023-08-20T11:19:00;100858.66;;;31.03;47.80
78990;BME280;68390;52.130;21.218;2023-08-20T11:21:28;100855.78;;;31.08;47.59
78990;BME280;68390;52.130;21.218;2023-08-20T11:23:54;100856.25;;;31.20;48.24
78990;BME280;68390;52.130;21.218;2023-08-20T11:26:20;100860.03;;;31.11;44.62
78990;BME280;68390;52.130;21.218;2023-08-20T11:28:46;100862.56;;;31.12;44.08
78990;BME280;68390;52.130;21.218;2023-08-20T11:31:12;100848.69;;;31.11;46.38
78990;BME280;68390;52.130;21.218;2023-08-20T11:33:38;100840.78;;;31.02;43.10
78990;BME280;68390;52.130;21.218;2023-08-20T11:36:05;100841.66;;;30.98;47.43
78990;BME280;68390;52.130;21.218;2023-08-20T11:38:31;100834.88;;;30.94;45.45
78990;BME280;68390;52.130;21.218;2023-08-20T11:40:58;100837.72;;;30.94;45.60
78990;BME280;68390;52.130;21.218;2023-08-20T11:43:30;100836.53;;;31.00;44.54
78990;BME280;68390;52.130;21.218;2023-08-20T11:45:55;100839.31;;;31.05;44.88
78990;BME280;68390;52.130;21.218;2023-08-20T11:48:22;100840.78;;;31.02;43.90
78990;BME280;68390;52.130;21.218;2023-08-20T11:50:49;100845.22;;;30.75;45.09
78990;BME280;68390;52.130;21.218;2023-08-20T11:53:15;100849.31;;;30.48;46.00
78990;BME280;68390;52.130;21.218;2023-08-20T11:55:46;100845.63;;;30.48;47.71
78990;BME280;68390;52.130;21.218;2023-08-20T11:58:12;100836.97;;;30.29;46.47
78990;BME280;68390;52.130;21.218;2023-08-20T12:00:37;100842.59;;;30.34;46.96
78990;BME280;68390;52.130;21.218;2023-08-20T12:03:03;100843.13;;;30.41;47.31
78990;BME280;68390;52.130;21.218;2023-08-20T12:05:31;100831.44;;;30.53;49.55
78990;BME280;68390;52.130;21.218;2023-08-20T12:08:01;100826.56;;;30.63;47.22
78990;BME280;68390;52.130;21.218;2023-08-20T12:10:28;100823.38;;;30.75;45.97
78990;BME280;68390;52.130;21.218;2023-08-20T12:12:55;100826.19;;;30.80;46.69
78990;BME280;68390;52.130;21.218;2023-08-20T12:15:23;100827.03;;;30.81;45.12
78990;BME280;68390;52.130;21.218;2023-08-20T12:18:00;100823.91;;;30.82;45.72
78990;BME280;68390;52.130;21.218;2023-08-20T12:20:28;100825.84;;;30.87;46.28
78990;BME280;68390;52.130;21.218;2023-08-20T12:22:58;100811.66;;;30.87;46.89
78990;BME280;68390;52.130;21.218;2023-08-20T12:25:24;100816.19;;;30.88;44.92
78990;BME280;68390;52.130;21.218;2023-08-20T12:28:10;100821.00;;;30.92;45.22
78990;BME280;68390;52.130;21.218;2023-08-20T12:30:36;100815.03;;;30.94;46.08
78990;BME280;68390;52.130;21.218;2023-08-20T12:33:02;100816.69;;;30.95;45.82
78990;BME280;68390;52.130;21.218;2023-08-20T12:35:28;100815.03;;;30.94;47.07
78990;BME280;68390;52.130;21.218;2023-08-20T12:37:54;100819.53;;;30.95;45.24
78990;BME280;68390;52.130;21.218;2023-08-20T12:40:21;100828.31;;;30.98;47.33
78990;BME280;68390;52.130;21.218;2023-08-20T12:42:47;100820.72;;;30.94;44.23